Newark Liberty International Airport
KEWR : rendu visible

Aérodrome :











RETROUVEZ-NOUS SUR...

 
LOGIN :

S'inscrire | Disclaimer

   EN    FR    IT 

 









Légende :    VFR   VFR Marginal   IFR   IFR Intensif   IFR Très Intensif
Visi : 
Plafond : 
>= 8 km
>= 3000ft
5 à 8 km
1000 à 3000 ft
1500m à 5 km
500 à 1000 ft
800 à 1500m
200 à 500 ft
< 800m
< 200 ft
Symboles :   Orages  Brouillard  Fortes neiges  Fortes précipitations  Vent > 20 kt






- Altitude de l'aérodrome : 18 ft
- Code IATA : EWR


KEWR - Newark Liberty International

DERNIER METAR :
  • 100651Z 22013G25KT 10SM OVC014 13/12 A2974 RMK AO2 PK WND 23028/0553 SLP069 CIG 012V017 T01330117

METARs EXPIRÉS :
  • 100551Z 22016G23KT 10SM OVC013 13/12 A2974 RMK AO2 PK WND 23029/0516 RAE38 SLP070 P0000 60028 T01330117 10133 20111 56007
  • 100451Z 23014G25KT 9SM -RA BKN014 OVC019 13/11 A2974 RMK AO2 PK WND 22026/0427 SLP072 P0002 T01280111 401280039

TAF KEWR
Valide du 10 à 06h jusqu'au 11 à 12h UTC


100532Z 1006/1112 22013G25KT 5SM BR OVC006 WS020/21045KT
TEMPO 1006/1008 6SM BR SCT006 OVC014
FM101300 22010KT 5SM BR VCSH OVC007
FM101700 25010KT 5SM -RA BR OVC020
FM102200 28012G21KT 5SM -RA BR OVC020
FM110300 32011KT 5SM -RA BR OVC025
FM110700 33009KT 4SM -RASN BR SCT008 OVC010
FM110900 33007KT 2SM -SN BR OVC008



MET'MAP, la Météo Aéronautique d'un coup d'oeil ! - Copyright ORBIFLY Décembre 2007 - Disclaimer

ORBIFLY MET'MAP TEAM :

Programmation & Développement : Alexandra Zaïnal
Sur une idée originale de : Baudouin d'Aumeries
Assistance à la programmation : Marc-Olivier Méhu
Soutien technique & logistique : Manuel Goepfert

Contact : metmap@orbifly.com




SOURCES & CREDITS :

   NOAA       Earth
Advisory